sensor_id;sensor_type;location;lat;lon;timestamp;P1;durP1;ratioP1;P2;durP2;ratioP2
57113;SDS011;42994;51.606;9.988;2024-02-26T00:02:15;21.50;;;9.20;;
57113;SDS011;42994;51.606;9.988;2024-02-26T00:04:44;15.68;;;7.18;;
57113;SDS011;42994;51.606;9.988;2024-02-26T00:07:10;17.38;;;6.93;;
57113;SDS011;42994;51.606;9.988;2024-02-26T00:09:37;7.93;;;4.35;;
57113;SDS011;42994;51.606;9.988;2024-02-26T00:12:04;7.22;;;3.58;;
57113;SDS011;42994;51.606;9.988;2024-02-26T00:14:33;5.00;;;2.75;;
57113;SDS011;42994;51.606;9.988;2024-02-26T00:17:00;6.20;;;2.67;;
57113;SDS011;42994;51.606;9.988;2024-02-26T00:19:26;2.83;;;2.30;;
57113;SDS011;42994;51.606;9.988;2024-02-26T00:21:57;6.35;;;2.58;;
57113;SDS011;42994;51.606;9.988;2024-02-26T00:24:23;3.60;;;2.72;;
57113;SDS011;42994;51.606;9.988;2024-02-26T00:26:51;4.18;;;2.53;;
57113;SDS011;42994;51.606;9.988;2024-02-26T00:29:19;2.85;;;2.40;;
57113;SDS011;42994;51.606;9.988;2024-02-26T00:31:46;3.92;;;2.30;;
57113;SDS011;42994;51.606;9.988;2024-02-26T00:34:13;3.28;;;2.25;;
57113;SDS011;42994;51.606;9.988;2024-02-26T00:36:40;3.10;;;1.83;;
57113;SDS011;42994;51.606;9.988;2024-02-26T00:39:08;2.75;;;2.20;;
57113;SDS011;42994;51.606;9.988;2024-02-26T00:41:37;2.58;;;1.67;;
57113;SDS011;42994;51.606;9.988;2024-02-26T00:44:05;2.28;;;2.05;;
57113;SDS011;42994;51.606;9.988;2024-02-26T00:46:33;3.72;;;1.88;;
57113;SDS011;42994;51.606;9.988;2024-02-26T00:49:00;3.50;;;2.55;;
57113;SDS011;42994;51.606;9.988;2024-02-26T00:51:27;2.88;;;2.40;;
57113;SDS011;42994;51.606;9.988;2024-02-26T00:53:53;3.67;;;2.33;;
57113;SDS011;42994;51.606;9.988;2024-02-26T00:56:24;3.30;;;2.05;;
57113;SDS011;42994;51.606;9.988;2024-02-26T00:58:51;4.07;;;1.92;;
57113;SDS011;42994;51.606;9.988;2024-02-26T01:01:18;2.10;;;1.85;;
57113;SDS011;42994;51.606;9.988;2024-02-26T01:03:46;2.63;;;2.20;;
57113;SDS011;42994;51.606;9.988;2024-02-26T01:06:13;2.92;;;1.90;;
57113;SDS011;42994;51.606;9.988;2024-02-26T01:08:39;2.30;;;2.10;;
57113;SDS011;42994;51.606;9.988;2024-02-26T01:11:06;2.53;;;2.17;;
57113;SDS011;42994;51.606;9.988;2024-02-26T01:13:36;2.40;;;2.10;;
57113;SDS011;42994;51.606;9.988;2024-02-26T01:16:03;2.78;;;2.20;;
57113;SDS011;42994;51.606;9.988;2024-02-26T01:18:30;3.05;;;2.20;;
57113;SDS011;42994;51.606;9.988;2024-02-26T01:20:57;2.13;;;1.92;;
57113;SDS011;42994;51.606;9.988;2024-02-26T01:23:27;1.98;;;1.77;;
57113;SDS011;42994;51.606;9.988;2024-02-26T01:25:54;2.97;;;1.98;;
57113;SDS011;42994;51.606;9.988;2024-02-26T01:28:21;4.35;;;2.03;;
57113;SDS011;42994;51.606;9.988;2024-02-26T01:30:49;5.30;;;3.10;;
57113;SDS011;42994;51.606;9.988;2024-02-26T01:33:16;2.35;;;1.80;;
57113;SDS011;42994;51.606;9.988;2024-02-26T01:35:42;3.15;;;2.33;;
57113;SDS011;42994;51.606;9.988;2024-02-26T01:38:09;4.07;;;2.20;;
57113;SDS011;42994;51.606;9.988;2024-02-26T01:40:36;3.90;;;2.00;;
57113;SDS011;42994;51.606;9.988;2024-02-26T01:43:04;2.55;;;2.00;;
57113;SDS011;42994;51.606;9.988;2024-02-26T01:45:30;3.00;;;1.90;;
57113;SDS011;42994;51.606;9.988;2024-02-26T01:47:59;1.75;;;1.65;;
57113;SDS011;42994;51.606;9.988;2024-02-26T01:50:26;2.90;;;1.73;;
57113;SDS011;42994;51.606;9.988;2024-02-26T01:52:54;1.67;;;1.58;;
57113;SDS011;42994;51.606;9.988;2024-02-26T01:55:23;1.98;;;1.50;;
57113;SDS011;42994;51.606;9.988;2024-02-26T01:57:52;1.65;;;1.55;;
57113;SDS011;42994;51.606;9.988;2024-02-26T02:00:21;1.80;;;1.35;;
57113;SDS011;42994;51.606;9.988;2024-02-26T02:02:48;2.33;;;2.13;;
57113;SDS011;42994;51.606;9.988;2024-02-26T02:05:19;2.92;;;1.58;;
57113;SDS011;42994;51.606;9.988;2024-02-26T02:07:46;1.88;;;1.40;;
57113;SDS011;42994;51.606;9.988;2024-02-26T02:10:14;2.97;;;1.80;;
57113;SDS011;42994;51.606;9.988;2024-02-26T02:12:41;2.13;;;1.60;;
57113;SDS011;42994;51.606;9.988;2024-02-26T02:15:09;2.50;;;1.40;;
57113;SDS011;42994;51.606;9.988;2024-02-26T02:17:36;2.22;;;1.48;;
57113;SDS011;42994;51.606;9.988;2024-02-26T02:20:03;1.63;;;1.17;;
57113;SDS011;42994;51.606;9.988;2024-02-26T02:22:35;2.13;;;1.60;;
57113;SDS011;42994;51.606;9.988;2024-02-26T02:25:04;4.75;;;1.90;;
57113;SDS011;42994;51.606;9.988;2024-02-26T02:27:32;1.42;;;1.33;;
57113;SDS011;42994;51.606;9.988;2024-02-26T02:30:01;2.45;;;1.58;;
57113;SDS011;42994;51.606;9.988;2024-02-26T02:32:30;3.15;;;1.70;;
57113;SDS011;42994;51.606;9.988;2024-02-26T02:34:56;1.27;;;1.17;;
57113;SDS011;42994;51.606;9.988;2024-02-26T02:37:24;2.30;;;1.50;;
57113;SDS011;42994;51.606;9.988;2024-02-26T02:39:54;1.90;;;1.67;;
57113;SDS011;42994;51.606;9.988;2024-02-26T02:42:22;1.50;;;1.20;;
57113;SDS011;42994;51.606;9.988;2024-02-26T02:44:49;2.47;;;1.77;;
57113;SDS011;42994;51.606;9.988;2024-02-26T02:47:16;1.55;;;1.45;;
57113;SDS011;42994;51.606;9.988;2024-02-26T02:49:43;3.83;;;1.70;;
57113;SDS011;42994;51.606;9.988;2024-02-26T02:52:10;2.25;;;1.70;;
57113;SDS011;42994;51.606;9.988;2024-02-26T02:54:37;2.25;;;1.83;;
57113;SDS011;42994;51.606;9.988;2024-02-26T02:57:08;1.55;;;1.45;;
57113;SDS011;42994;51.606;9.988;2024-02-26T02:59:34;1.75;;;1.50;;
57113;SDS011;42994;51.606;9.988;2024-02-26T03:02:01;1.73;;;1.42;;
57113;SDS011;42994;51.606;9.988;2024-02-26T03:04:28;1.90;;;1.73;;
57113;SDS011;42994;51.606;9.988;2024-02-26T03:06:58;3.65;;;1.33;;
57113;SDS011;42994;51.606;9.988;2024-02-26T03:09:35;2.58;;;1.33;;
57113;SDS011;42994;51.606;9.988;2024-02-26T03:12:02;3.53;;;1.90;;
57113;SDS011;42994;51.606;9.988;2024-02-26T03:14:32;4.20;;;1.98;;
57113;SDS011;42994;51.606;9.988;2024-02-26T03:17:00;4.47;;;1.90;;
57113;SDS011;42994;51.606;9.988;2024-02-26T03:19:27;3.20;;;2.33;;
57113;SDS011;42994;51.606;9.988;2024-02-26T03:21:54;4.05;;;2.30;;
57113;SDS011;42994;51.606;9.988;2024-02-26T03:24:21;2.97;;;2.03;;
57113;SDS011;42994;51.606;9.988;2024-02-26T03:26:47;3.83;;;2.40;;
57113;SDS011;42994;51.606;9.988;2024-02-26T03:29:14;5.20;;;2.50;;
57113;SDS011;42994;51.606;9.988;2024-02-26T03:31:42;5.28;;;2.83;;
57113;SDS011;42994;51.606;9.988;2024-02-26T03:34:09;3.63;;;2.33;;
57113;SDS011;42994;51.606;9.988;2024-02-26T03:36:37;3.17;;;1.90;;
57113;SDS011;42994;51.606;9.988;2024-02-26T03:39:04;2.75;;;1.70;;
57113;SDS011;42994;51.606;9.988;2024-02-26T03:41:32;4.75;;;2.30;;
57113;SDS011;42994;51.606;9.988;2024-02-26T03:44:00;3.45;;;2.15;;
57113;SDS011;42994;51.606;9.988;2024-02-26T03:46:27;4.70;;;2.25;;
57113;SDS011;42994;51.606;9.988;2024-02-26T03:48:55;3.58;;;2.60;;
57113;SDS011;42994;51.606;9.988;2024-02-26T03:51:22;4.22;;;2.15;;
57113;SDS011;42994;51.606;9.988;2024-02-26T03:53:49;4.40;;;2.88;;
57113;SDS011;42994;51.606;9.988;2024-02-26T03:56:16;5.20;;;2.70;;
57113;SDS011;42994;51.606;9.988;2024-02-26T03:58:43;5.93;;;2.60;;
57113;SDS011;42994;51.606;9.988;2024-02-26T04:01:09;5.55;;;3.10;;
57113;SDS011;42994;51.606;9.988;2024-02-26T04:03:36;3.78;;;2.70;;
57113;SDS011;42994;51.606;9.988;2024-02-26T04:06:09;3.05;;;2.03;;
57113;SDS011;42994;51.606;9.988;2024-02-26T04:08:38;4.60;;;2.63;;
57113;SDS011;42994;51.606;9.988;2024-02-26T04:11:05;6.80;;;2.92;;
57113;SDS011;42994;51.606;9.988;2024-02-26T04:13:36;4.63;;;3.00;;
57113;SDS011;42994;51.606;9.988;2024-02-26T04:16:11;3.92;;;3.10;;
57113;SDS011;42994;51.606;9.988;2024-02-26T04:18:38;5.40;;;3.75;;
57113;SDS011;42994;51.606;9.988;2024-02-26T04:21:05;9.07;;;3.92;;
57113;SDS011;42994;51.606;9.988;2024-02-26T04:23:33;8.40;;;4.78;;
57113;SDS011;42994;51.606;9.988;2024-02-26T04:26:04;7.53;;;4.63;;
57113;SDS011;42994;51.606;9.988;2024-02-26T04:28:34;10.15;;;4.60;;
57113;SDS011;42994;51.606;9.988;2024-02-26T04:31:01;5.82;;;3.88;;
57113;SDS011;42994;51.606;9.988;2024-02-26T04:33:28;6.75;;;4.50;;
57113;SDS011;42994;51.606;9.988;2024-02-26T04:35:55;7.45;;;3.80;;
57113;SDS011;42994;51.606;9.988;2024-02-26T04:38:24;5.72;;;3.97;;
57113;SDS011;42994;51.606;9.988;2024-02-26T04:40:52;6.80;;;4.20;;
57113;SDS011;42994;51.606;9.988;2024-02-26T04:43:19;7.30;;;4.57;;
57113;SDS011;42994;51.606;9.988;2024-02-26T04:45:46;10.55;;;5.70;;
57113;SDS011;42994;51.606;9.988;2024-02-26T04:48:13;12.35;;;7.55;;
57113;SDS011;42994;51.606;9.988;2024-02-26T04:50:40;11.15;;;7.03;;
57113;SDS011;42994;51.606;9.988;2024-02-26T04:53:06;10.93;;;6.75;;
57113;SDS011;42994;51.606;9.988;2024-02-26T04:55:33;10.93;;;7.15;;
57113;SDS011;42994;51.606;9.988;2024-02-26T04:58:03;10.48;;;6.18;;
57113;SDS011;42994;51.606;9.988;2024-02-26T05:00:30;13.05;;;7.53;;
57113;SDS011;42994;51.606;9.988;2024-02-26T05:02:57;9.77;;;7.03;;
57113;SDS011;42994;51.606;9.988;2024-02-26T05:05:24;15.50;;;8.27;;
57113;SDS011;42994;51.606;9.988;2024-02-26T05:10:22;15.10;;;8.63;;
57113;SDS011;42994;51.606;9.988;2024-02-26T05:12:49;12.32;;;7.88;;
57113;SDS011;42994;51.606;9.988;2024-02-26T05:15:17;10.07;;;6.68;;
57113;SDS011;42994;51.606;9.988;2024-02-26T05:17:44;11.63;;;7.70;;
57113;SDS011;42994;51.606;9.988;2024-02-26T05:20:13;12.40;;;7.72;;
57113;SDS011;42994;51.606;9.988;2024-02-26T05:22:40;11.85;;;6.85;;
57113;SDS011;42994;51.606;9.988;2024-02-26T05:25:07;10.63;;;6.95;;
57113;SDS011;42994;51.606;9.988;2024-02-26T05:27:36;10.75;;;7.32;;
57113;SDS011;42994;51.606;9.988;2024-02-26T05:30:06;10.05;;;6.85;;
57113;SDS011;42994;51.606;9.988;2024-02-26T05:32:35;11.07;;;6.07;;
57113;SDS011;42994;51.606;9.988;2024-02-26T05:35:02;15.48;;;6.93;;
57113;SDS011;42994;51.606;9.988;2024-02-26T05:37:30;14.07;;;7.28;;
57113;SDS011;42994;51.606;9.988;2024-02-26T05:39:57;12.43;;;7.45;;
57113;SDS011;42994;51.606;9.988;2024-02-26T05:42:23;11.25;;;7.13;;
57113;SDS011;42994;51.606;9.988;2024-02-26T05:44:50;15.52;;;9.20;;
57113;SDS011;42994;51.606;9.988;2024-02-26T05:47:17;13.10;;;8.73;;
57113;SDS011;42994;51.606;9.988;2024-02-26T05:49:46;16.45;;;9.32;;
57113;SDS011;42994;51.606;9.988;2024-02-26T05:52:14;15.30;;;8.30;;
57113;SDS011;42994;51.606;9.988;2024-02-26T05:54:41;15.50;;;9.77;;
57113;SDS011;42994;51.606;9.988;2024-02-26T05:57:08;13.82;;;8.93;;
57113;SDS011;42994;51.606;9.988;2024-02-26T05:59:38;14.63;;;9.45;;
57113;SDS011;42994;51.606;9.988;2024-02-26T06:02:04;49.78;;;22.83;;
57113;SDS011;42994;51.606;9.988;2024-02-26T06:04:31;21.60;;;11.40;;
57113;SDS011;42994;51.606;9.988;2024-02-26T06:07:00;18.08;;;10.35;;
57113;SDS011;42994;51.606;9.988;2024-02-26T06:09:27;20.08;;;11.25;;
57113;SDS011;42994;51.606;9.988;2024-02-26T06:11:54;15.68;;;9.90;;
57113;SDS011;42994;51.606;9.988;2024-02-26T06:14:21;17.23;;;10.15;;
57113;SDS011;42994;51.606;9.988;2024-02-26T06:16:48;16.88;;;10.48;;
57113;SDS011;42994;51.606;9.988;2024-02-26T06:19:18;18.95;;;11.13;;
57113;SDS011;42994;51.606;9.988;2024-02-26T06:21:45;20.75;;;10.88;;
57113;SDS011;42994;51.606;9.988;2024-02-26T06:24:22;18.45;;;11.07;;
57113;SDS011;42994;51.606;9.988;2024-02-26T06:26:49;15.73;;;10.52;;
57113;SDS011;42994;51.606;9.988;2024-02-26T06:29:16;17.42;;;10.32;;
57113;SDS011;42994;51.606;9.988;2024-02-26T06:31:45;22.13;;;11.13;;
57113;SDS011;42994;51.606;9.988;2024-02-26T06:34:16;18.00;;;10.98;;
57113;SDS011;42994;51.606;9.988;2024-02-26T06:36:45;17.30;;;10.75;;
57113;SDS011;42994;51.606;9.988;2024-02-26T06:39:12;19.08;;;11.05;;
57113;SDS011;42994;51.606;9.988;2024-02-26T06:41:42;18.42;;;10.90;;
57113;SDS011;42994;51.606;9.988;2024-02-26T06:44:14;17.58;;;11.02;;
57113;SDS011;42994;51.606;9.988;2024-02-26T06:46:43;17.88;;;11.40;;
57113;SDS011;42994;51.606;9.988;2024-02-26T06:49:11;17.90;;;11.13;;
57113;SDS011;42994;51.606;9.988;2024-02-26T06:51:44;17.75;;;11.00;;
57113;SDS011;42994;51.606;9.988;2024-02-26T06:54:22;18.38;;;11.73;;
57113;SDS011;42994;51.606;9.988;2024-02-26T06:56:57;18.20;;;11.07;;
57113;SDS011;42994;51.606;9.988;2024-02-26T06:59:25;20.30;;;11.40;;
57113;SDS011;42994;51.606;9.988;2024-02-26T07:01:52;16.02;;;10.48;;
57113;SDS011;42994;51.606;9.988;2024-02-26T07:04:19;16.15;;;10.43;;
57113;SDS011;42994;51.606;9.988;2024-02-26T07:06:46;16.98;;;10.02;;
57113;SDS011;42994;51.606;9.988;2024-02-26T07:09:13;18.50;;;10.93;;
57113;SDS011;42994;51.606;9.988;2024-02-26T07:11:41;17.90;;;10.68;;
57113;SDS011;42994;51.606;9.988;2024-02-26T07:14:11;17.00;;;11.20;;
57113;SDS011;42994;51.606;9.988;2024-02-26T07:16:38;20.05;;;11.45;;
57113;SDS011;42994;51.606;9.988;2024-02-26T07:19:05;16.55;;;9.98;;
57113;SDS011;42994;51.606;9.988;2024-02-26T07:21:34;18.00;;;10.30;;
57113;SDS011;42994;51.606;9.988;2024-02-26T07:24:00;16.63;;;9.52;;
57113;SDS011;42994;51.606;9.988;2024-02-26T07:26:27;16.30;;;10.52;;
57113;SDS011;42994;51.606;9.988;2024-02-26T07:28:56;15.98;;;9.23;;
57113;SDS011;42994;51.606;9.988;2024-02-26T07:31:24;16.50;;;9.43;;
57113;SDS011;42994;51.606;9.988;2024-02-26T07:33:53;16.50;;;9.75;;
57113;SDS011;42994;51.606;9.988;2024-02-26T07:36:19;15.98;;;9.02;;
57113;SDS011;42994;51.606;9.988;2024-02-26T07:38:46;18.35;;;9.57;;
57113;SDS011;42994;51.606;9.988;2024-02-26T07:41:13;15.02;;;9.57;;
57113;SDS011;42994;51.606;9.988;2024-02-26T07:43:40;17.45;;;9.65;;
57113;SDS011;42994;51.606;9.988;2024-02-26T07:46:07;13.25;;;8.82;;
57113;SDS011;42994;51.606;9.988;2024-02-26T07:48:35;17.67;;;9.82;;
57113;SDS011;42994;51.606;9.988;2024-02-26T07:51:02;14.20;;;9.15;;
57113;SDS011;42994;51.606;9.988;2024-02-26T07:53:29;18.35;;;9.35;;
57113;SDS011;42994;51.606;9.988;2024-02-26T07:55:56;13.43;;;9.07;;
57113;SDS011;42994;51.606;9.988;2024-02-26T07:58:23;14.73;;;8.43;;
57113;SDS011;42994;51.606;9.988;2024-02-26T08:00:50;14.27;;;8.10;;
57113;SDS011;42994;51.606;9.988;2024-02-26T08:03:17;14.60;;;9.23;;
57113;SDS011;42994;51.606;9.988;2024-02-26T08:05:47;16.23;;;9.70;;
57113;SDS011;42994;51.606;9.988;2024-02-26T08:08:45;14.52;;;8.95;;
57113;SDS011;42994;51.606;9.988;2024-02-26T08:11:13;14.52;;;9.07;;
57113;SDS011;42994;51.606;9.988;2024-02-26T08:13:41;12.05;;;8.15;;
57113;SDS011;42994;51.606;9.988;2024-02-26T08:16:07;10.98;;;7.55;;
57113;SDS011;42994;51.606;9.988;2024-02-26T08:18:34;10.82;;;7.32;;
57113;SDS011;42994;51.606;9.988;2024-02-26T08:21:03;11.88;;;7.35;;
57113;SDS011;42994;51.606;9.988;2024-02-26T08:23:30;16.05;;;8.27;;
57113;SDS011;42994;51.606;9.988;2024-02-26T08:25:59;12.68;;;7.47;;
57113;SDS011;42994;51.606;9.988;2024-02-26T08:28:26;10.05;;;7.35;;
57113;SDS011;42994;51.606;9.988;2024-02-26T08:30:54;12.70;;;8.48;;
57113;SDS011;42994;51.606;9.988;2024-02-26T08:33:21;13.95;;;8.68;;
57113;SDS011;42994;51.606;9.988;2024-02-26T08:35:48;9.68;;;6.18;;
57113;SDS011;42994;51.606;9.988;2024-02-26T08:38:16;10.88;;;6.72;;
57113;SDS011;42994;51.606;9.988;2024-02-26T08:40:43;9.77;;;6.07;;
57113;SDS011;42994;51.606;9.988;2024-02-26T08:43:10;8.23;;;5.43;;
57113;SDS011;42994;51.606;9.988;2024-02-26T08:45:36;8.75;;;5.70;;
57113;SDS011;42994;51.606;9.988;2024-02-26T08:48:04;12.38;;;6.70;;
57113;SDS011;42994;51.606;9.988;2024-02-26T08:50:31;11.07;;;6.72;;
57113;SDS011;42994;51.606;9.988;2024-02-26T08:52:58;11.80;;;6.55;;
57113;SDS011;42994;51.606;9.988;2024-02-26T08:55:27;12.13;;;6.88;;
57113;SDS011;42994;51.606;9.988;2024-02-26T08:57:56;11.13;;;7.38;;
57113;SDS011;42994;51.606;9.988;2024-02-26T09:00:23;9.80;;;7.00;;
57113;SDS011;42994;51.606;9.988;2024-02-26T09:02:50;11.32;;;8.00;;
57113;SDS011;42994;51.606;9.988;2024-02-26T09:05:16;9.23;;;7.03;;
57113;SDS011;42994;51.606;9.988;2024-02-26T09:07:43;10.48;;;6.97;;
57113;SDS011;42994;51.606;9.988;2024-02-26T09:10:11;11.10;;;7.05;;
57113;SDS011;42994;51.606;9.988;2024-02-26T09:12:44;12.57;;;7.45;;
57113;SDS011;42994;51.606;9.988;2024-02-26T09:15:10;10.50;;;7.15;;
57113;SDS011;42994;51.606;9.988;2024-02-26T09:17:40;11.10;;;7.60;;
57113;SDS011;42994;51.606;9.988;2024-02-26T09:20:07;12.35;;;7.80;;
57113;SDS011;42994;51.606;9.988;2024-02-26T09:22:35;10.65;;;7.68;;
57113;SDS011;42994;51.606;9.988;2024-02-26T09:25:03;10.43;;;6.88;;
57113;SDS011;42994;51.606;9.988;2024-02-26T09:27:31;10.90;;;7.25;;
57113;SDS011;42994;51.606;9.988;2024-02-26T09:30:00;12.27;;;7.60;;
57113;SDS011;42994;51.606;9.988;2024-02-26T09:32:32;11.90;;;8.43;;
57113;SDS011;42994;51.606;9.988;2024-02-26T09:35:01;15.02;;;8.23;;
57113;SDS011;42994;51.606;9.988;2024-02-26T09:37:34;10.73;;;7.78;;
57113;SDS011;42994;51.606;9.988;2024-02-26T09:40:03;12.70;;;8.82;;
57113;SDS011;42994;51.606;9.988;2024-02-26T09:42:37;13.07;;;7.78;;
57113;SDS011;42994;51.606;9.988;2024-02-26T09:45:17;12.13;;;8.57;;
57113;SDS011;42994;51.606;9.988;2024-02-26T09:47:48;12.25;;;7.88;;
57113;SDS011;42994;51.606;9.988;2024-02-26T09:50:16;17.48;;;8.88;;
57113;SDS011;42994;51.606;9.988;2024-02-26T09:55:17;29.08;;;9.00;;
57113;SDS011;42994;51.606;9.988;2024-02-26T09:57:50;15.82;;;9.55;;
57113;SDS011;42994;51.606;9.988;2024-02-26T10:00:20;14.68;;;8.15;;
57113;SDS011;42994;51.606;9.988;2024-02-26T10:02:51;15.23;;;8.77;;
57113;SDS011;42994;51.606;9.988;2024-02-26T10:05:21;13.25;;;8.90;;
57113;SDS011;42994;51.606;9.988;2024-02-26T10:07:52;11.60;;;7.67;;
57113;SDS011;42994;51.606;9.988;2024-02-26T10:10:22;13.35;;;8.18;;
57113;SDS011;42994;51.606;9.988;2024-02-26T10:12:52;17.25;;;9.13;;
57113;SDS011;42994;51.606;9.988;2024-02-26T10:15:23;12.98;;;9.00;;
57113;SDS011;42994;51.606;9.988;2024-02-26T10:17:50;12.18;;;8.40;;
57113;SDS011;42994;51.606;9.988;2024-02-26T10:20:24;11.90;;;8.15;;
57113;SDS011;42994;51.606;9.988;2024-02-26T10:22:53;13.15;;;8.80;;
57113;SDS011;42994;51.606;9.988;2024-02-26T10:25:20;12.95;;;8.40;;
57113;SDS011;42994;51.606;9.988;2024-02-26T10:27:51;12.93;;;8.70;;
57113;SDS011;42994;51.606;9.988;2024-02-26T10:30:21;11.70;;;9.13;;
57113;SDS011;42994;51.606;9.988;2024-02-26T10:32:51;13.13;;;8.85;;
57113;SDS011;42994;51.606;9.988;2024-02-26T10:35:20;12.75;;;9.13;;
57113;SDS011;42994;51.606;9.988;2024-02-26T10:37:50;14.80;;;9.65;;
57113;SDS011;42994;51.606;9.988;2024-02-26T10:40:23;18.33;;;9.63;;
57113;SDS011;42994;51.606;9.988;2024-02-26T10:42:55;14.75;;;9.32;;
57113;SDS011;42994;51.606;9.988;2024-02-26T10:45:26;15.85;;;9.55;;
57113;SDS011;42994;51.606;9.988;2024-02-26T10:47:53;17.45;;;9.73;;
57113;SDS011;42994;51.606;9.988;2024-02-26T10:50:24;13.57;;;9.30;;
57113;SDS011;42994;51.606;9.988;2024-02-26T10:52:52;16.98;;;9.23;;
57113;SDS011;42994;51.606;9.988;2024-02-26T10:55:25;14.75;;;9.43;;
57113;SDS011;42994;51.606;9.988;2024-02-26T10:57:52;13.20;;;8.73;;
57113;SDS011;42994;51.606;9.988;2024-02-26T11:00:25;16.33;;;9.40;;
57113;SDS011;42994;51.606;9.988;2024-02-26T11:02:54;17.30;;;9.30;;
57113;SDS011;42994;51.606;9.988;2024-02-26T11:05:24;12.27;;;8.30;;
57113;SDS011;42994;51.606;9.988;2024-02-26T11:07:51;15.98;;;9.50;;
57113;SDS011;42994;51.606;9.988;2024-02-26T11:10:23;12.27;;;8.65;;
57113;SDS011;42994;51.606;9.988;2024-02-26T11:12:51;14.23;;;8.52;;
57113;SDS011;42994;51.606;9.988;2024-02-26T11:15:22;13.25;;;7.82;;
57113;SDS011;42994;51.606;9.988;2024-02-26T11:17:53;14.20;;;8.93;;
57113;SDS011;42994;51.606;9.988;2024-02-26T11:20:25;13.55;;;8.82;;
57113;SDS011;42994;51.606;9.988;2024-02-26T11:22:55;13.32;;;9.38;;
57113;SDS011;42994;51.606;9.988;2024-02-26T11:25:25;11.60;;;8.38;;
57113;SDS011;42994;51.606;9.988;2024-02-26T11:27:55;10.32;;;8.18;;
57113;SDS011;42994;51.606;9.988;2024-02-26T11:30:27;12.13;;;8.70;;
57113;SDS011;42994;51.606;9.988;2024-02-26T11:32:59;13.13;;;8.32;;
57113;SDS011;42994;51.606;9.988;2024-02-26T11:35:31;12.73;;;8.65;;
57113;SDS011;42994;51.606;9.988;2024-02-26T11:37:58;10.07;;;6.63;;
57113;SDS011;42994;51.606;9.988;2024-02-26T11:40:26;13.75;;;7.60;;
57113;SDS011;42994;51.606;9.988;2024-02-26T11:42:55;10.13;;;7.22;;
57113;SDS011;42994;51.606;9.988;2024-02-26T11:48:25;12.30;;;6.88;;
57113;SDS011;42994;51.606;9.988;2024-02-26T11:50:55;12.13;;;6.90;;
57113;SDS011;42994;51.606;9.988;2024-02-26T11:53:28;12.82;;;7.53;;
57113;SDS011;42994;51.606;9.988;2024-02-26T11:58:53;12.00;;;8.10;;
57113;SDS011;42994;51.606;9.988;2024-02-26T12:01:41;11.50;;;6.20;;
57113;SDS011;42994;51.606;9.988;2024-02-26T12:04:16;11.45;;;6.85;;
57113;SDS011;42994;51.606;9.988;2024-02-26T12:06:46;10.40;;;7.13;;
57113;SDS011;42994;51.606;9.988;2024-02-26T12:12:02;10.77;;;7.47;;
57113;SDS011;42994;51.606;9.988;2024-02-26T12:14:32;11.23;;;7.57;;
57113;SDS011;42994;51.606;9.988;2024-02-26T12:17:00;9.48;;;7.50;;
57113;SDS011;42994;51.606;9.988;2024-02-26T12:19:29;10.48;;;7.32;;
57113;SDS011;42994;51.606;9.988;2024-02-26T12:22:01;11.95;;;8.20;;
57113;SDS011;42994;51.606;9.988;2024-02-26T12:24:29;9.63;;;7.55;;
57113;SDS011;42994;51.606;9.988;2024-02-26T12:26:59;13.90;;;8.50;;
57113;SDS011;42994;51.606;9.988;2024-02-26T12:29:29;13.55;;;8.00;;
57113;SDS011;42994;51.606;9.988;2024-02-26T12:31:56;11.10;;;8.07;;
57113;SDS011;42994;51.606;9.988;2024-02-26T12:34:23;13.32;;;8.45;;
57113;SDS011;42994;51.606;9.988;2024-02-26T12:48:12;13.43;;;9.27;;
57113;SDS011;42994;51.606;9.988;2024-02-26T12:50:39;15.07;;;9.70;;
57113;SDS011;42994;51.606;9.988;2024-02-26T12:53:06;14.48;;;8.70;;
57113;SDS011;42994;51.606;9.988;2024-02-26T12:55:33;16.17;;;9.07;;
57113;SDS011;42994;51.606;9.988;2024-02-26T12:58:01;13.10;;;8.85;;
57113;SDS011;42994;51.606;9.988;2024-02-26T13:00:28;12.57;;;8.02;;
57113;SDS011;42994;51.606;9.988;2024-02-26T13:02:55;11.55;;;7.60;;
57113;SDS011;42994;51.606;9.988;2024-02-26T13:05:24;14.55;;;7.75;;
57113;SDS011;42994;51.606;9.988;2024-02-26T13:07:51;11.40;;;7.82;;
57113;SDS011;42994;51.606;9.988;2024-02-26T13:10:19;10.82;;;7.88;;
57113;SDS011;42994;51.606;9.988;2024-02-26T13:12:47;14.40;;;8.52;;
57113;SDS011;42994;51.606;9.988;2024-02-26T13:15:15;12.40;;;8.65;;
57113;SDS011;42994;51.606;9.988;2024-02-26T13:17:43;14.68;;;8.00;;
57113;SDS011;42994;51.606;9.988;2024-02-26T13:20:13;14.70;;;8.88;;
57113;SDS011;42994;51.606;9.988;2024-02-26T13:23:14;14.65;;;8.23;;
57113;SDS011;42994;51.606;9.988;2024-02-26T13:25:41;12.45;;;7.40;;
57113;SDS011;42994;51.606;9.988;2024-02-26T13:28:08;13.95;;;7.97;;
57113;SDS011;42994;51.606;9.988;2024-02-26T13:30:38;11.10;;;8.13;;
57113;SDS011;42994;51.606;9.988;2024-02-26T13:33:10;13.52;;;8.38;;
57113;SDS011;42994;51.606;9.988;2024-02-26T13:35:41;12.88;;;8.48;;
57113;SDS011;42994;51.606;9.988;2024-02-26T13:38:10;14.27;;;8.48;;
57113;SDS011;42994;51.606;9.988;2024-02-26T13:40:40;12.90;;;8.05;;
57113;SDS011;42994;51.606;9.988;2024-02-26T13:43:07;14.45;;;7.35;;
57113;SDS011;42994;51.606;9.988;2024-02-26T13:45:34;11.55;;;7.82;;
57113;SDS011;42994;51.606;9.988;2024-02-26T13:48:06;10.07;;;7.55;;
57113;SDS011;42994;51.606;9.988;2024-02-26T13:50:35;12.75;;;8.70;;
57113;SDS011;42994;51.606;9.988;2024-02-26T13:53:02;14.05;;;9.32;;
57113;SDS011;42994;51.606;9.988;2024-02-26T13:55:30;10.68;;;8.20;;
57113;SDS011;42994;51.606;9.988;2024-02-26T13:57:57;13.40;;;9.00;;
57113;SDS011;42994;51.606;9.988;2024-02-26T14:00:30;14.13;;;9.40;;
57113;SDS011;42994;51.606;9.988;2024-02-26T14:02:59;12.68;;;9.20;;
57113;SDS011;42994;51.606;9.988;2024-02-26T14:05:26;14.07;;;8.93;;
57113;SDS011;42994;51.606;9.988;2024-02-26T14:07:53;14.55;;;8.82;;
57113;SDS011;42994;51.606;9.988;2024-02-26T14:10:20;12.30;;;8.98;;
57113;SDS011;42994;51.606;9.988;2024-02-26T14:12:48;14.73;;;8.75;;
57113;SDS011;42994;51.606;9.988;2024-02-26T14:15:16;13.63;;;8.93;;
57113;SDS011;42994;51.606;9.988;2024-02-26T14:17:45;13.57;;;9.00;;
57113;SDS011;42994;51.606;9.988;2024-02-26T14:20:18;17.50;;;10.57;;
57113;SDS011;42994;51.606;9.988;2024-02-26T14:22:46;12.10;;;7.80;;
57113;SDS011;42994;51.606;9.988;2024-02-26T14:25:13;14.00;;;9.38;;
57113;SDS011;42994;51.606;9.988;2024-02-26T14:27:40;18.23;;;10.52;;
57113;SDS011;42994;51.606;9.988;2024-02-26T14:30:12;13.18;;;8.07;;
57113;SDS011;42994;51.606;9.988;2024-02-26T14:32:41;13.20;;;8.68;;
57113;SDS011;42994;51.606;9.988;2024-02-26T14:35:11;11.38;;;7.90;;
57113;SDS011;42994;51.606;9.988;2024-02-26T14:37:38;17.35;;;8.73;;
57113;SDS011;42994;51.606;9.988;2024-02-26T14:40:05;11.93;;;8.52;;
57113;SDS011;42994;51.606;9.988;2024-02-26T14:42:58;14.80;;;9.20;;
57113;SDS011;42994;51.606;9.988;2024-02-26T14:45:30;12.13;;;8.02;;
57113;SDS011;42994;51.606;9.988;2024-02-26T14:47:57;16.67;;;8.05;;
57113;SDS011;42994;51.606;9.988;2024-02-26T14:50:26;12.20;;;7.80;;
57113;SDS011;42994;51.606;9.988;2024-02-26T14:52:57;12.32;;;7.57;;
57113;SDS011;42994;51.606;9.988;2024-02-26T14:55:25;14.40;;;7.22;;
57113;SDS011;42994;51.606;9.988;2024-02-26T14:58:18;11.93;;;7.65;;
57113;SDS011;42994;51.606;9.988;2024-02-26T15:00:47;11.35;;;7.10;;
57113;SDS011;42994;51.606;9.988;2024-02-26T15:03:14;19.67;;;7.80;;
57113;SDS011;42994;51.606;9.988;2024-02-26T15:05:42;10.07;;;7.60;;
57113;SDS011;42994;51.606;9.988;2024-02-26T15:08:09;8.57;;;7.07;;
57113;SDS011;42994;51.606;9.988;2024-02-26T15:10:40;13.57;;;7.13;;
57113;SDS011;42994;51.606;9.988;2024-02-26T15:13:13;12.60;;;7.80;;